createdAt,value
2023-01-29T00:01:12.212Z,3.19
2023-01-29T00:03:40.140Z,3.18
2023-01-29T00:06:09.823Z,3.17
2023-01-29T00:08:39.278Z,3.18
2023-01-29T00:11:09.882Z,3.17
2023-01-29T00:14:11.358Z,3.12
2023-01-29T00:16:39.332Z,3.09
2023-01-29T00:19:07.497Z,3.14
2023-01-29T00:21:35.493Z,3.18
2023-01-29T00:24:03.880Z,3.12
2023-01-29T00:26:33.108Z,3.08
2023-01-29T00:29:02.084Z,3.12
2023-01-29T00:31:32.285Z,3.14
2023-01-29T00:34:03.619Z,3.12
2023-01-29T00:36:31.497Z,3.14
2023-01-29T00:39:03.458Z,3.18
2023-01-29T00:41:51.760Z,3.12
2023-01-29T00:44:38.437Z,3.14
2023-01-29T00:47:27.049Z,3.14
2023-01-29T00:49:55.359Z,3.15
2023-01-29T00:52:26.561Z,3.15
2023-01-29T00:54:56.521Z,3.21
2023-01-29T00:57:27.853Z,3.21
2023-01-29T00:59:56.010Z,3.19
2023-01-29T01:02:43.407Z,3.24
2023-01-29T01:05:19.612Z,3.22
2023-01-29T01:07:51.543Z,3.24
2023-01-29T01:10:25.126Z,3.21
2023-01-29T01:12:58.222Z,3.18
2023-01-29T01:15:28.930Z,3.22
2023-01-29T01:17:59.461Z,3.21
2023-01-29T01:20:29.779Z,3.25
2023-01-29T01:22:57.848Z,3.22
2023-01-29T01:25:27.066Z,3.25
2023-01-29T01:30:28.157Z,3.21
2023-01-29T01:32:56.852Z,3.21
2023-01-29T01:35:24.643Z,3.24
2023-01-29T01:37:52.553Z,3.21
2023-01-29T01:40:22.497Z,3.19
2023-01-29T01:42:56.536Z,3.21
2023-01-29T01:45:36.474Z,3.19
2023-01-29T01:48:24.551Z,3.18
2023-01-29T01:51:03.275Z,3.19
2023-01-29T01:53:43.459Z,3.17
2023-01-29T01:56:19.590Z,3.15
2023-01-29T01:58:56.845Z,3.17
2023-01-29T02:01:29.712Z,3.22
2023-01-29T02:04:28.984Z,3.21
2023-01-29T02:07:18.583Z,3.22
2023-01-29T02:10:03.956Z,3.21
2023-01-29T02:12:32.522Z,3.18
2023-01-29T02:15:00.711Z,3.21
2023-01-29T02:17:28.622Z,3.24
2023-01-29T02:20:15.176Z,3.17
2023-01-29T02:22:55.988Z,3.19
2023-01-29T02:25:34.140Z,3.18
2023-01-29T02:28:11.095Z,3.17
2023-01-29T02:30:50.729Z,3.19
2023-01-29T02:33:39.774Z,3.18
2023-01-29T02:36:14.027Z,3.18
2023-01-29T02:39:16.032Z,3.15
2023-01-29T02:41:46.778Z,3.17
2023-01-29T02:44:27.106Z,3.15
2023-01-29T02:47:18.990Z,3.18
2023-01-29T02:49:59.957Z,3.17
2023-01-29T02:52:39.479Z,3.12
2023-01-29T02:55:18.407Z,3.12
2023-01-29T02:57:48.826Z,3.14
2023-01-29T03:00:21.772Z,3.14
2023-01-29T03:02:56.454Z,3.18
2023-01-29T03:05:45.308Z,3.19
2023-01-29T03:08:20.395Z,3.18
2023-01-29T03:10:58.068Z,3.17
2023-01-29T03:13:55.643Z,3.14
2023-01-29T03:16:38.173Z,3.15
2023-01-29T03:19:22.011Z,3.12
2023-01-29T03:22:00.215Z,3.12
2023-01-29T03:25:04.088Z,3.15
2023-01-29T03:28:13.875Z,3.15
2023-01-29T03:31:14.445Z,3.14
2023-01-29T03:34:28.542Z,3.09
2023-01-29T03:37:01.654Z,3.09
2023-01-29T03:39:30.346Z,3.09
2023-01-29T03:42:23.000Z,3.09
2023-01-29T03:45:14.524Z,3.09
2023-01-29T03:48:07.924Z,3.08
2023-01-29T03:50:47.804Z,3.09
2023-01-29T03:54:04.304Z,3.03
2023-01-29T03:56:40.282Z,3.01
2023-01-29T03:59:22.646Z,3.05
2023-01-29T04:02:18.039Z,3.03
2023-01-29T04:04:51.964Z,3.01
2023-01-29T04:07:24.429Z,3.04
2023-01-29T04:10:12.150Z,3.04
2023-01-29T04:13:00.530Z,3.03
2023-01-29T04:15:34.234Z,3.00
2023-01-29T04:18:02.782Z,3.00
2023-01-29T04:21:01.211Z,3.00
2023-01-29T04:23:29.757Z,2.97
2023-01-29T04:26:15.754Z,2.98
2023-01-29T04:28:58.805Z,2.97
2023-01-29T04:31:34.565Z,2.96
2023-01-29T04:34:19.241Z,2.94
2023-01-29T04:36:57.687Z,2.98
2023-01-29T04:39:37.213Z,2.94
2023-01-29T04:42:22.655Z,2.97
2023-01-29T04:45:01.645Z,2.96
2023-01-29T04:47:45.483Z,2.94
2023-01-29T04:50:41.814Z,2.91
2023-01-29T04:53:18.742Z,2.91
2023-01-29T04:55:52.857Z,2.93
2023-01-29T04:59:04.204Z,2.91
2023-01-29T05:01:33.534Z,2.93
2023-01-29T05:04:12.476Z,2.89
2023-01-29T05:06:41.725Z,2.86
2023-01-29T05:09:12.927Z,2.91
2023-01-29T05:11:42.338Z,2.89
2023-01-29T05:14:14.586Z,2.89
2023-01-29T05:16:50.815Z,2.87
2023-01-29T05:19:18.775Z,2.86
2023-01-29T05:21:48.915Z,2.84
2023-01-29T05:24:20.180Z,2.80
2023-01-29T05:27:08.467Z,2.80
2023-01-29T05:29:36.668Z,2.79
2023-01-29T05:32:04.609Z,2.80
2023-01-29T05:34:32.416Z,2.75
2023-01-29T05:37:00.256Z,2.72
2023-01-29T05:39:28.178Z,2.72
2023-01-29T05:41:56.062Z,2.70
2023-01-29T05:44:23.954Z,2.60
2023-01-29T05:46:52.044Z,2.60
2023-01-29T05:49:20.647Z,2.62
2023-01-29T05:51:48.547Z,2.59
2023-01-29T05:54:16.706Z,2.59
2023-01-29T05:56:44.711Z,2.60
2023-01-29T05:59:12.604Z,2.59
2023-01-29T06:01:40.529Z,2.59
2023-01-29T06:04:08.832Z,2.60
2023-01-29T06:06:36.668Z,2.55
2023-01-29T06:09:04.645Z,2.52
2023-01-29T06:11:32.503Z,2.53
2023-01-29T06:14:01.304Z,2.59
2023-01-29T06:16:29.150Z,2.63
2023-01-29T06:18:57.133Z,2.59
2023-01-29T06:21:24.954Z,2.56
2023-01-29T06:23:55.952Z,2.62
2023-01-29T06:26:23.947Z,2.64
2023-01-29T06:28:52.056Z,2.64
2023-01-29T06:31:36.652Z,2.60
2023-01-29T06:34:06.840Z,2.67
2023-01-29T06:36:34.696Z,2.66
2023-01-29T06:39:03.087Z,2.64
2023-01-29T06:41:31.012Z,2.63
2023-01-29T06:43:58.951Z,2.67
2023-01-29T06:46:27.082Z,2.67
2023-01-29T06:48:57.329Z,2.67
2023-01-29T06:51:25.149Z,2.70
2023-01-29T06:53:54.549Z,2.72
2023-01-29T06:56:23.349Z,2.70
2023-01-29T06:58:52.449Z,2.66
2023-01-29T07:01:34.534Z,2.67
2023-01-29T07:04:04.134Z,2.73
2023-01-29T07:06:35.024Z,2.73
2023-01-29T07:09:04.115Z,2.76
2023-01-29T07:11:33.894Z,2.77
2023-01-29T07:14:01.735Z,2.73
2023-01-29T07:16:29.697Z,2.75
2023-01-29T07:18:57.615Z,2.73
2023-01-29T07:21:25.775Z,2.72
2023-01-29T07:23:53.780Z,2.76
2023-01-29T07:26:21.636Z,2.76
2023-01-29T07:28:49.466Z,2.76
2023-01-29T07:31:17.428Z,2.73
2023-01-29T07:33:45.958Z,2.76
2023-01-29T07:36:14.821Z,2.76
2023-01-29T07:38:42.794Z,2.77
2023-01-29T07:41:11.709Z,2.76
2023-01-29T07:43:39.573Z,2.76
2023-01-29T07:46:07.739Z,2.80
2023-01-29T07:48:35.950Z,2.79
2023-01-29T07:51:04.164Z,2.79
2023-01-29T07:53:32.707Z,2.77
2023-01-29T07:56:00.742Z,2.84
2023-01-29T07:58:28.649Z,2.81
2023-01-29T08:00:56.532Z,2.80
2023-01-29T08:03:24.386Z,2.86
2023-01-29T08:05:52.301Z,2.89
2023-01-29T08:08:20.294Z,2.89
2023-01-29T08:10:48.166Z,2.87
2023-01-29T08:13:16.119Z,2.89
2023-01-29T08:15:46.784Z,2.93
2023-01-29T08:18:15.337Z,2.91
2023-01-29T08:20:43.112Z,3.00
2023-01-29T08:23:16.338Z,2.98
2023-01-29T08:25:44.512Z,3.04
2023-01-29T08:28:12.665Z,3.08
2023-01-29T08:30:40.717Z,3.18
2023-01-29T08:33:08.525Z,3.19
2023-01-29T08:35:36.862Z,3.25
2023-01-29T08:38:05.684Z,3.31
2023-01-29T08:40:35.353Z,3.34
2023-01-29T08:43:07.813Z,3.35
2023-01-29T08:45:42.465Z,3.38
2023-01-29T08:48:11.537Z,3.39
2023-01-29T08:50:40.174Z,3.48
2023-01-29T08:53:09.473Z,3.48
2023-01-29T08:55:39.391Z,3.51
2023-01-29T08:58:10.522Z,3.53
2023-01-29T09:00:39.093Z,3.55
2023-01-29T09:03:08.203Z,3.64
2023-01-29T09:05:41.706Z,3.64
2023-01-29T09:08:10.906Z,3.66
2023-01-29T09:10:39.441Z,3.72
2023-01-29T09:13:07.832Z,3.79
2023-01-29T09:15:36.124Z,3.83
2023-01-29T09:18:05.840Z,3.83
2023-01-29T09:20:34.323Z,3.89
2023-01-29T09:25:50.708Z,3.94
2023-01-29T09:28:19.084Z,3.97
2023-01-29T09:30:47.638Z,3.95
2023-01-29T09:33:15.993Z,3.94
2023-01-29T09:35:45.978Z,3.95
2023-01-29T09:38:15.032Z,3.98
2023-01-29T09:40:51.780Z,4.05
2023-01-29T09:43:24.734Z,4.09
2023-01-29T09:45:58.634Z,4.11
2023-01-29T09:48:30.213Z,4.09
2023-01-29T09:51:02.942Z,4.09
2023-01-29T09:54:01.670Z,4.19
2023-01-29T09:56:30.078Z,4.14
2023-01-29T09:59:01.551Z,4.11
2023-01-29T10:01:55.062Z,4.18
2023-01-29T10:04:52.595Z,4.17
2023-01-29T10:07:56.446Z,4.18
2023-01-29T10:10:27.080Z,4.27
2023-01-29T10:13:28.965Z,4.27
2023-01-29T10:16:14.430Z,4.21
2023-01-29T10:18:42.176Z,4.28
2023-01-29T10:21:42.973Z,4.25
2023-01-29T10:24:33.912Z,4.24
2023-01-29T10:27:02.406Z,4.28
2023-01-29T10:29:31.458Z,4.28
2023-01-29T10:32:05.046Z,4.39
2023-01-29T10:34:33.239Z,4.44
2023-01-29T10:37:06.746Z,4.45
2023-01-29T10:39:34.763Z,4.42
2023-01-29T10:42:31.725Z,4.44
2023-01-29T10:45:41.681Z,4.44
2023-01-29T10:48:39.031Z,4.44
2023-01-29T10:51:16.309Z,4.55
2023-01-29T10:53:47.231Z,4.50
2023-01-29T10:56:22.606Z,4.49
2023-01-29T10:59:34.796Z,4.49
2023-01-29T11:02:03.366Z,4.45
2023-01-29T11:04:34.043Z,4.39
2023-01-29T11:07:01.892Z,4.49
2023-01-29T11:09:50.636Z,4.48
2023-01-29T11:12:26.796Z,4.50
2023-01-29T11:15:03.168Z,4.46
2023-01-29T11:17:31.343Z,4.39
2023-01-29T11:19:59.458Z,4.42
2023-01-29T11:22:29.044Z,4.38
2023-01-29T11:25:17.247Z,4.46
2023-01-29T11:27:52.097Z,4.44
2023-01-29T11:30:35.857Z,4.42
2023-01-29T11:33:23.699Z,4.55
2023-01-29T11:35:52.660Z,4.56
2023-01-29T11:38:24.757Z,4.55
2023-01-29T11:40:53.446Z,4.57
2023-01-29T11:43:31.119Z,4.53
2023-01-29T11:46:05.190Z,4.50
2023-01-29T11:48:59.348Z,4.44
2023-01-29T11:51:34.721Z,4.46
2023-01-29T11:54:05.058Z,4.53
2023-01-29T11:56:46.205Z,4.55
2023-01-29T11:59:37.306Z,4.57
2023-01-29T12:02:17.802Z,4.46
2023-01-29T12:04:46.345Z,4.46
2023-01-29T12:07:16.618Z,4.46
2023-01-29T12:09:57.376Z,4.48
2023-01-29T12:12:29.978Z,4.44
2023-01-29T12:15:26.193Z,4.48
2023-01-29T12:18:20.247Z,4.50
2023-01-29T12:20:59.733Z,4.46
2023-01-29T12:23:36.866Z,4.41
2023-01-29T12:26:13.664Z,4.42
2023-01-29T12:29:00.537Z,4.36
2023-01-29T12:32:00.534Z,4.41
2023-01-29T12:34:46.290Z,4.46
2023-01-29T12:37:40.514Z,4.45
2023-01-29T12:40:19.388Z,4.45
2023-01-29T12:42:53.307Z,4.48
2023-01-29T12:45:24.065Z,4.45
2023-01-29T12:48:11.554Z,4.42
2023-01-29T12:50:42.865Z,4.45
2023-01-29T12:53:15.179Z,4.38
2023-01-29T12:55:55.784Z,4.38
2023-01-29T12:58:36.091Z,4.32
2023-01-29T13:01:31.270Z,4.38
2023-01-29T13:03:59.135Z,4.25
2023-01-29T13:06:31.537Z,4.24
2023-01-29T13:09:03.295Z,4.24
2023-01-29T13:11:56.069Z,4.15
2023-01-29T13:14:31.875Z,4.14
2023-01-29T13:17:35.948Z,4.12
2023-01-29T13:20:23.132Z,4.12
2023-01-29T13:22:54.277Z,4.09
2023-01-29T13:25:22.444Z,4.09
2023-01-29T13:27:50.867Z,4.12
2023-01-29T13:30:34.222Z,4.15
2023-01-29T13:33:11.123Z,4.17
2023-01-29T13:35:45.570Z,4.15
2023-01-29T13:38:26.677Z,4.19
2023-01-29T13:41:01.744Z,4.25
2023-01-29T13:43:39.957Z,4.22
2023-01-29T13:46:15.481Z,4.27
2023-01-29T13:48:47.330Z,4.29
2023-01-29T13:51:21.079Z,4.32
2023-01-29T13:54:04.247Z,4.41
2023-01-29T13:56:35.898Z,4.44
2023-01-29T13:59:06.140Z,4.52
2023-01-29T14:01:47.290Z,4.69
2023-01-29T14:04:25.583Z,4.74
2023-01-29T14:06:57.959Z,4.83
2023-01-29T14:09:37.962Z,4.80
2023-01-29T14:12:25.713Z,4.87
2023-01-29T14:14:59.028Z,4.81
2023-01-29T14:17:28.733Z,4.74
2023-01-29T14:20:18.364Z,4.77
2023-01-29T14:22:56.338Z,4.80
2023-01-29T14:25:30.929Z,4.83
2023-01-29T14:28:01.824Z,4.81
2023-01-29T14:30:38.478Z,4.74
2023-01-29T14:33:22.839Z,4.77
2023-01-29T14:35:52.178Z,4.69
2023-01-29T14:38:22.670Z,4.70
2023-01-29T14:40:51.095Z,4.67
2023-01-29T14:43:21.749Z,4.70
2023-01-29T14:45:51.546Z,4.70
2023-01-29T14:48:45.619Z,4.69
2023-01-29T14:51:18.215Z,4.69
2023-01-29T14:54:24.841Z,4.66
2023-01-29T14:57:05.115Z,4.64
2023-01-29T14:59:56.386Z,4.62
2023-01-29T15:02:33.738Z,4.67
2023-01-29T15:05:04.525Z,4.69
2023-01-29T15:07:44.525Z,4.69
2023-01-29T15:10:22.720Z,4.69
2023-01-29T15:13:41.637Z,4.66
2023-01-29T15:16:22.873Z,4.63
2023-01-29T15:18:56.425Z,4.67
2023-01-29T15:21:24.311Z,4.64
2023-01-29T15:24:05.766Z,4.64
2023-01-29T15:26:35.921Z,4.60
2023-01-29T15:29:05.899Z,4.63
2023-01-29T15:31:35.560Z,4.63
2023-01-29T15:34:07.568Z,4.66
2023-01-29T15:36:38.689Z,4.66
2023-01-29T15:39:12.385Z,4.60
2023-01-29T15:41:40.877Z,4.59
2023-01-29T15:44:18.683Z,4.60
2023-01-29T15:46:56.387Z,4.55
2023-01-29T15:49:33.879Z,4.55
2023-01-29T15:52:19.801Z,4.49
2023-01-29T15:54:48.305Z,4.46
2023-01-29T15:57:22.577Z,4.49
2023-01-29T15:59:53.318Z,4.46
2023-01-29T16:02:39.806Z,4.46
2023-01-29T16:05:15.493Z,4.48
2023-01-29T16:07:45.254Z,4.52
2023-01-29T16:10:29.028Z,4.49
2023-01-29T16:12:58.113Z,4.45
2023-01-29T16:15:34.812Z,4.41
2023-01-29T16:18:19.497Z,4.42
2023-01-29T16:20:52.942Z,4.38
2023-01-29T16:23:35.056Z,4.32
2023-01-29T16:26:15.007Z,4.34
2023-01-29T16:28:44.770Z,4.29
2023-01-29T16:31:20.651Z,4.24
2023-01-29T16:33:49.650Z,4.19
2023-01-29T16:36:21.991Z,4.19
2023-01-29T16:38:54.378Z,4.15
2023-01-29T16:41:22.359Z,4.18
2023-01-29T16:43:55.819Z,4.12
2023-01-29T16:46:38.802Z,4.12
2023-01-29T16:49:25.570Z,4.08
2023-01-29T16:51:56.408Z,4.07
2023-01-29T16:54:27.859Z,4.02
2023-01-29T16:57:18.392Z,3.95
2023-01-29T16:59:47.346Z,3.87
2023-01-29T17:02:36.030Z,3.83
2023-01-29T17:05:10.326Z,3.77
2023-01-29T17:07:39.311Z,3.77
2023-01-29T17:10:08.450Z,3.81
2023-01-29T17:12:38.756Z,3.77
2023-01-29T17:15:31.390Z,3.76
2023-01-29T17:17:59.664Z,3.80
2023-01-29T17:20:28.025Z,3.77
2023-01-29T17:22:56.108Z,3.76
2023-01-29T17:25:24.708Z,3.74
2023-01-29T17:27:53.272Z,3.76
2023-01-29T17:30:24.054Z,3.76
2023-01-29T17:32:52.396Z,3.76
2023-01-29T17:35:21.672Z,3.77
2023-01-29T17:37:50.027Z,3.74
2023-01-29T17:40:41.288Z,3.72
2023-01-29T17:43:11.743Z,3.72
2023-01-29T17:45:40.811Z,3.70
2023-01-29T17:48:15.526Z,3.77
2023-01-29T17:50:48.427Z,3.77
2023-01-29T17:53:16.907Z,3.83
2023-01-29T17:55:51.871Z,3.80
2023-01-29T17:58:25.136Z,3.83
2023-01-29T18:00:54.526Z,3.83
2023-01-29T18:03:23.319Z,3.81
2023-01-29T18:05:52.012Z,3.83
2023-01-29T18:08:30.041Z,3.89
2023-01-29T18:10:59.201Z,3.89
2023-01-29T18:13:27.779Z,3.89
2023-01-29T18:15:55.818Z,3.93
2023-01-29T18:18:24.979Z,3.98
2023-01-29T18:20:53.065Z,3.97
2023-01-29T18:23:21.179Z,4.02
2023-01-29T18:25:49.116Z,4.02
2023-01-29T18:28:17.987Z,4.05
2023-01-29T18:30:47.558Z,4.09
2023-01-29T18:33:17.065Z,4.14
2023-01-29T18:35:48.571Z,4.11
2023-01-29T18:38:17.343Z,4.14
2023-01-29T18:40:45.200Z,4.09
2023-01-29T18:43:14.802Z,4.12
2023-01-29T18:45:43.123Z,4.12
2023-01-29T18:48:10.974Z,4.18
2023-01-29T18:50:38.740Z,4.19
2023-01-29T18:53:06.609Z,4.21
2023-01-29T18:55:34.479Z,4.17
2023-01-29T18:58:33.457Z,4.21
2023-01-29T19:00:50.401Z,4.18
2023-01-29T19:03:19.530Z,4.25
2023-01-29T19:05:47.539Z,4.24
2023-01-29T19:08:15.513Z,4.25
2023-01-29T19:10:43.590Z,4.24
2023-01-29T19:13:11.763Z,4.29
2023-01-29T19:15:43.515Z,4.27
2023-01-29T19:18:14.650Z,4.25
2023-01-29T19:20:42.869Z,4.32
2023-01-29T19:23:10.974Z,4.31
2023-01-29T19:25:39.753Z,4.31
2023-01-29T19:28:08.847Z,4.35
2023-01-29T19:30:36.831Z,4.32
2023-01-29T19:33:05.035Z,4.35
2023-01-29T19:35:33.571Z,4.39
2023-01-29T19:38:01.661Z,4.36
2023-01-29T19:40:29.584Z,4.41
2023-01-29T19:42:58.356Z,4.42
2023-01-29T19:45:49.645Z,4.41
2023-01-29T19:48:24.082Z,4.38
2023-01-29T19:51:00.445Z,4.36
2023-01-29T19:53:29.257Z,4.39
2023-01-29T19:56:05.249Z,4.39
2023-01-29T19:58:34.204Z,4.35
2023-01-29T20:01:06.309Z,4.38
2023-01-29T20:03:34.515Z,4.31
2023-01-29T20:06:04.329Z,4.36
2023-01-29T20:08:33.750Z,4.35
2023-01-29T20:11:02.554Z,4.35
2023-01-29T20:13:30.471Z,4.36
2023-01-29T20:16:02.987Z,4.31
2023-01-29T20:18:31.510Z,4.34
2023-01-29T20:21:00.032Z,4.36
2023-01-29T20:23:37.822Z,4.39
2023-01-29T20:26:13.298Z,4.38
2023-01-29T20:28:41.825Z,4.42
2023-01-29T20:31:10.508Z,4.46
2023-01-29T20:33:39.634Z,4.45
2023-01-29T20:36:10.483Z,4.46
2023-01-29T20:38:38.555Z,4.45
2023-01-29T20:41:13.833Z,4.48
2023-01-29T20:43:42.890Z,4.46
2023-01-29T20:46:11.039Z,4.50
2023-01-29T20:48:39.482Z,4.45
2023-01-29T20:51:09.378Z,4.53
2023-01-29T20:53:37.937Z,4.57
2023-01-29T20:56:06.424Z,4.57
2023-01-29T20:58:34.592Z,4.59
2023-01-29T21:01:12.504Z,4.59
2023-01-29T21:03:41.001Z,4.60
2023-01-29T21:06:10.400Z,4.62
2023-01-29T21:08:39.439Z,4.60
2023-01-29T21:11:09.144Z,4.64
2023-01-29T21:13:37.313Z,4.63
2023-01-29T21:16:05.805Z,4.64
2023-01-29T21:18:33.642Z,4.67
2023-01-29T21:21:01.584Z,4.67
2023-01-29T21:23:29.953Z,4.64
2023-01-29T21:26:07.817Z,4.69
2023-01-29T21:28:36.156Z,4.72
2023-01-29T21:31:10.103Z,4.76
2023-01-29T21:33:38.466Z,4.76
2023-01-29T21:36:06.918Z,4.77
2023-01-29T21:38:34.849Z,4.79
2023-01-29T21:41:05.264Z,4.79
2023-01-29T21:43:33.717Z,4.80
2023-01-29T21:46:11.572Z,4.83
2023-01-29T21:48:40.510Z,4.80
2023-01-29T21:51:08.946Z,4.83
2023-01-29T21:53:37.360Z,4.80
2023-01-29T21:56:06.586Z,4.83
2023-01-29T21:58:34.743Z,4.83
2023-01-29T22:01:22.873Z,4.83
2023-01-29T22:03:51.018Z,4.80
2023-01-29T22:06:18.824Z,4.81
2023-01-29T22:08:49.400Z,4.81
2023-01-29T22:11:17.768Z,4.84
2023-01-29T22:13:45.630Z,4.85
2023-01-29T22:16:13.562Z,4.87
2023-01-29T22:18:41.482Z,4.88
2023-01-29T22:21:09.758Z,4.87
2023-01-29T22:23:38.046Z,4.88
2023-01-29T22:26:07.136Z,4.92
2023-01-29T22:28:35.847Z,4.95
2023-01-29T22:31:04.838Z,4.97
2023-01-29T22:33:33.526Z,5.02
2023-01-29T22:36:01.898Z,5.02
2023-01-29T22:38:30.360Z,5.01
2023-01-29T22:40:59.785Z,5.02
2023-01-29T22:43:29.125Z,5.08
2023-01-29T22:45:57.057Z,5.11
2023-01-29T22:48:25.288Z,5.12
2023-01-29T22:51:09.827Z,5.15
2023-01-29T22:53:41.971Z,5.17
2023-01-29T22:56:12.536Z,5.17
2023-01-29T22:58:41.474Z,5.18
2023-01-29T23:01:10.168Z,5.17
2023-01-29T23:03:38.205Z,5.15
2023-01-29T23:06:06.091Z,5.15
2023-01-29T23:08:36.779Z,5.21
2023-01-29T23:11:15.332Z,5.22
2023-01-29T23:13:49.011Z,5.22
2023-01-29T23:16:18.393Z,5.24
2023-01-29T23:18:49.228Z,5.25
2023-01-29T23:21:17.286Z,5.29
2023-01-29T23:23:45.478Z,5.28
2023-01-29T23:26:33.037Z,5.32
2023-01-29T23:29:01.009Z,5.34
2023-01-29T23:31:29.380Z,5.36
2023-01-29T23:33:57.437Z,5.39
2023-01-29T23:36:25.444Z,5.40
2023-01-29T23:38:53.294Z,5.42
2023-01-29T23:41:21.398Z,5.43
2023-01-29T23:43:50.003Z,5.46
2023-01-29T23:46:17.949Z,5.52
2023-01-29T23:48:45.876Z,5.50
2023-01-29T23:51:13.851Z,5.52
2023-01-29T23:53:41.935Z,5.50
2023-01-29T23:56:11.224Z,5.57
2023-01-29T23:58:39.476Z,5.59
